createdAt,value
2018-04-29T00:01:41.517Z,14.00
2018-04-29T00:04:09.113Z,14.00
2018-04-29T00:06:36.663Z,14.00
2018-04-29T00:09:04.268Z,14.10
2018-04-29T00:11:31.874Z,14.00
2018-04-29T00:13:59.493Z,14.00
2018-04-29T00:16:27.852Z,13.90
2018-04-29T00:18:55.414Z,13.90
2018-04-29T00:21:23.781Z,13.80
2018-04-29T00:23:51.371Z,13.80
2018-04-29T00:26:19.755Z,13.90
2018-04-29T00:28:48.443Z,13.90
2018-04-29T00:31:16.067Z,13.80
2018-04-29T00:33:43.674Z,13.90
2018-04-29T00:36:11.294Z,13.90
2018-04-29T00:38:40.136Z,13.90
2018-04-29T00:41:07.754Z,13.90
2018-04-29T00:43:35.347Z,13.90
2018-04-29T00:46:02.895Z,13.90
2018-04-29T00:48:31.287Z,14.00
2018-04-29T00:50:58.909Z,13.90
2018-04-29T00:53:27.279Z,14.00
2018-04-29T00:55:54.889Z,14.00
2018-04-29T00:58:22.543Z,14.00
2018-04-29T01:00:50.901Z,13.90
2018-04-29T01:03:18.534Z,13.90
2018-04-29T01:05:46.160Z,13.90
2018-04-29T01:08:13.751Z,13.90
2018-04-29T01:10:41.323Z,13.90
2018-04-29T01:13:08.955Z,14.00
2018-04-29T01:15:36.574Z,13.90
2018-04-29T01:18:04.919Z,13.90
2018-04-29T01:20:32.525Z,13.90
2018-04-29T01:23:00.897Z,13.60
2018-04-29T01:25:29.245Z,13.50
2018-04-29T01:27:56.874Z,13.50
2018-04-29T01:30:24.464Z,13.40
2018-04-29T01:32:52.084Z,13.30
2018-04-29T01:35:19.710Z,13.30
2018-04-29T01:37:48.084Z,13.30
2018-04-29T01:40:16.474Z,13.40
2018-04-29T01:42:44.841Z,13.40
2018-04-29T01:45:13.277Z,13.40
2018-04-29T01:47:40.879Z,13.30
2018-04-29T01:50:09.253Z,13.30
2018-04-29T01:52:36.853Z,13.40
2018-04-29T01:55:04.486Z,13.30
2018-04-29T01:57:32.857Z,13.10
2018-04-29T02:00:00.476Z,13.10
2018-04-29T02:02:28.130Z,13.00
2018-04-29T02:04:55.752Z,13.00
2018-04-29T02:07:24.130Z,13.00
2018-04-29T02:09:52.510Z,13.10
2018-04-29T02:12:20.902Z,13.00
2018-04-29T02:14:48.509Z,13.00
2018-04-29T02:17:16.114Z,13.00
2018-04-29T02:19:44.472Z,12.90
2018-04-29T02:22:12.055Z,12.90
2018-04-29T02:24:40.394Z,12.90
2018-04-29T02:27:07.961Z,12.90
2018-04-29T02:29:35.534Z,12.90
2018-04-29T02:32:03.129Z,12.80
2018-04-29T02:34:30.746Z,12.80
2018-04-29T02:36:58.341Z,12.80
2018-04-29T02:39:26.035Z,12.80
2018-04-29T02:41:53.629Z,12.70
2018-04-29T02:44:21.247Z,12.60
2018-04-29T02:46:48.839Z,12.60
2018-04-29T02:49:16.431Z,12.60
2018-04-29T02:51:44.045Z,12.60
2018-04-29T02:54:11.689Z,12.60
2018-04-29T02:56:39.571Z,12.60
2018-04-29T02:59:07.274Z,12.60
2018-04-29T03:01:34.871Z,12.60
2018-04-29T03:04:02.493Z,12.50
2018-04-29T03:06:31.617Z,12.50
2018-04-29T03:08:59.183Z,12.50
2018-04-29T03:11:26.775Z,12.50
2018-04-29T03:13:54.395Z,12.50
2018-04-29T03:16:22.766Z,12.50
2018-04-29T03:18:51.130Z,12.50
2018-04-29T03:21:18.741Z,12.40
2018-04-29T03:23:46.310Z,12.40
2018-04-29T03:26:13.892Z,12.40
2018-04-29T03:28:41.501Z,12.40
2018-04-29T03:31:09.194Z,12.40
2018-04-29T03:33:36.832Z,12.40
2018-04-29T03:36:04.440Z,12.40
2018-04-29T03:38:32.075Z,12.30
2018-04-29T03:40:59.703Z,12.30
2018-04-29T03:43:27.296Z,12.30
2018-04-29T03:45:54.923Z,12.20
2018-04-29T03:48:22.570Z,12.20
2018-04-29T03:50:50.930Z,12.20
2018-04-29T03:53:19.307Z,12.20
2018-04-29T03:55:46.902Z,12.20
2018-04-29T03:58:26.503Z,12.20
2018-04-29T04:01:06.116Z,12.30
2018-04-29T04:03:45.564Z,12.30
2018-04-29T04:06:13.133Z,12.30
2018-04-29T04:08:40.730Z,12.20
2018-04-29T04:11:09.080Z,12.30
2018-04-29T04:13:36.693Z,12.30
2018-04-29T04:16:04.253Z,12.30
2018-04-29T04:18:31.843Z,12.40
2018-04-29T04:20:59.427Z,12.40
2018-04-29T04:23:27.164Z,12.40
2018-04-29T04:25:54.769Z,12.50
2018-04-29T04:28:23.157Z,12.60
2018-04-29T04:30:51.557Z,12.70
2018-04-29T04:33:19.145Z,12.70
2018-04-29T04:35:46.747Z,12.80
2018-04-29T04:38:14.347Z,12.90
2018-04-29T04:40:41.969Z,12.90
2018-04-29T04:43:10.315Z,13.10
2018-04-29T04:45:37.927Z,13.10
2018-04-29T04:48:05.565Z,13.20
2018-04-29T04:50:36.281Z,13.30
2018-04-29T04:53:03.816Z,13.60
2018-04-29T04:55:31.387Z,13.90
2018-04-29T04:57:58.967Z,14.30
2018-04-29T05:00:26.580Z,14.90
2018-04-29T05:03:01.092Z,15.20
2018-04-29T05:05:28.696Z,15.70
2018-04-29T05:07:56.298Z,16.20
2018-04-29T05:10:24.693Z,16.70
2018-04-29T05:12:52.279Z,16.70
2018-04-29T05:15:19.859Z,17.20
2018-04-29T05:17:47.505Z,17.10
2018-04-29T05:20:15.043Z,17.20
2018-04-29T05:22:42.683Z,17.40
2018-04-29T05:25:10.255Z,17.40
2018-04-29T05:27:37.849Z,17.80
2018-04-29T05:30:05.417Z,18.30
2018-04-29T05:32:33.079Z,18.50
2018-04-29T05:35:00.696Z,19.10
2018-04-29T05:37:28.318Z,19.40
2018-04-29T05:39:55.969Z,19.90
2018-04-29T05:42:23.599Z,20.50
2018-04-29T05:44:51.194Z,21.00
2018-04-29T05:47:31.583Z,21.30
2018-04-29T05:49:59.931Z,21.80
2018-04-29T05:52:27.539Z,21.80
2018-04-29T05:54:55.138Z,22.40
2018-04-29T05:57:22.724Z,22.70
2018-04-29T06:00:00.471Z,22.70
2018-04-29T06:02:28.036Z,23.20
2018-04-29T06:04:55.604Z,24.00
2018-04-29T06:07:23.186Z,25.10
2018-04-29T06:09:50.783Z,25.60
2018-04-29T06:12:19.102Z,26.00
2018-04-29T06:14:47.792Z,25.90
2018-04-29T06:17:15.378Z,25.60
2018-04-29T06:19:42.975Z,26.20
2018-04-29T06:22:10.782Z,26.30
2018-04-29T06:24:38.538Z,26.10
2018-04-29T06:27:06.226Z,25.50
2018-04-29T06:29:34.015Z,24.70
2018-04-29T06:32:02.462Z,22.60
2018-04-29T06:34:30.727Z,21.80
2018-04-29T06:36:58.361Z,21.70
2018-04-29T06:39:25.988Z,21.50
2018-04-29T06:41:53.603Z,21.30
2018-04-29T06:44:21.193Z,21.40
2018-04-29T06:46:48.848Z,21.30
2018-04-29T06:49:16.413Z,21.10
2018-04-29T06:51:44.037Z,21.00
2018-04-29T06:54:11.614Z,21.00
2018-04-29T06:56:39.205Z,21.00
2018-04-29T06:59:07.094Z,21.00
2018-04-29T07:01:35.428Z,20.80
2018-04-29T07:04:03.039Z,20.80
2018-04-29T07:06:30.739Z,20.70
2018-04-29T07:08:58.349Z,20.80
2018-04-29T07:11:26.736Z,21.00
2018-04-29T07:13:55.109Z,21.30
2018-04-29T07:16:23.468Z,21.60
2018-04-29T07:18:51.205Z,21.50
2018-04-29T07:21:18.795Z,21.60
2018-04-29T07:23:46.393Z,21.50
2018-04-29T07:26:13.969Z,21.40
2018-04-29T07:28:41.570Z,21.30
2018-04-29T07:31:09.182Z,21.40
2018-04-29T07:33:36.764Z,21.40
2018-04-29T07:36:04.384Z,21.60
2018-04-29T07:38:32.688Z,21.60
2018-04-29T07:41:00.313Z,21.60
2018-04-29T07:43:31.946Z,21.70
2018-04-29T07:45:59.556Z,21.60
2018-04-29T07:48:27.413Z,21.70
2018-04-29T07:50:55.121Z,21.40
2018-04-29T07:53:23.076Z,21.40
2018-04-29T07:55:50.671Z,21.50
2018-04-29T07:58:18.311Z,21.80
2018-04-29T08:00:46.124Z,21.80
2018-04-29T08:03:13.725Z,22.10
2018-04-29T08:05:41.324Z,22.30
2018-04-29T08:08:08.921Z,22.50
2018-04-29T08:10:36.526Z,22.40
2018-04-29T08:13:04.144Z,22.60
2018-04-29T08:15:31.753Z,22.70
2018-04-29T08:17:59.376Z,22.90
2018-04-29T08:20:27.152Z,23.00
2018-04-29T08:22:54.802Z,23.00
2018-04-29T08:25:24.121Z,23.00
2018-04-29T08:27:51.770Z,23.00
2018-04-29T08:30:19.386Z,23.00
2018-04-29T08:32:47.759Z,23.30
2018-04-29T08:35:15.346Z,23.30
2018-04-29T08:37:42.938Z,22.80
2018-04-29T08:40:10.528Z,22.70
2018-04-29T08:42:38.096Z,22.90
2018-04-29T08:45:05.733Z,22.90
2018-04-29T08:47:33.346Z,23.00
2018-04-29T08:50:01.677Z,22.90
2018-04-29T08:52:29.248Z,22.80
2018-04-29T08:54:56.879Z,23.00
2018-04-29T08:57:24.495Z,23.00
2018-04-29T08:59:52.941Z,22.80
2018-04-29T09:02:20.583Z,22.80
2018-04-29T09:04:48.238Z,22.80
2018-04-29T09:07:15.914Z,22.90
2018-04-29T09:09:43.713Z,23.10
2018-04-29T09:12:12.131Z,23.40
2018-04-29T09:14:39.919Z,23.40
2018-04-29T09:17:08.315Z,23.60
2018-04-29T09:19:35.957Z,23.60
2018-04-29T09:22:03.549Z,23.40
2018-04-29T09:24:31.142Z,23.50
2018-04-29T09:26:58.781Z,23.60
2018-04-29T09:29:27.245Z,23.90
2018-04-29T09:31:55.203Z,23.90
2018-04-29T09:34:22.995Z,24.00
2018-04-29T09:36:51.448Z,23.70
2018-04-29T09:39:19.465Z,23.70
2018-04-29T09:41:47.078Z,23.60
2018-04-29T09:44:14.693Z,23.70
2018-04-29T09:46:42.337Z,23.70
2018-04-29T09:49:10.707Z,23.80
2018-04-29T09:51:38.279Z,23.80
2018-04-29T09:54:06.702Z,24.10
2018-04-29T09:56:35.559Z,24.10
2018-04-29T09:59:03.638Z,24.00
2018-04-29T10:01:36.104Z,24.10
2018-04-29T10:04:03.721Z,24.30
2018-04-29T10:06:31.332Z,24.30
2018-04-29T10:08:58.939Z,24.40
2018-04-29T10:11:26.525Z,24.50
2018-04-29T10:13:54.110Z,24.60
2018-04-29T10:16:24.901Z,24.60
2018-04-29T10:18:53.510Z,24.60
2018-04-29T10:21:21.258Z,24.50
2018-04-29T10:23:49.546Z,24.60
2018-04-29T10:26:18.011Z,24.70
2018-04-29T10:28:45.778Z,24.80
2018-04-29T10:31:13.380Z,24.70
2018-04-29T10:33:41.229Z,24.80
2018-04-29T10:36:09.593Z,25.20
2018-04-29T10:38:37.207Z,25.10
2018-04-29T10:41:04.891Z,25.40
2018-04-29T10:43:32.439Z,25.50
2018-04-29T10:46:00.066Z,25.40
2018-04-29T10:48:27.691Z,25.40
2018-04-29T10:50:55.261Z,25.40
2018-04-29T10:53:23.592Z,25.60
2018-04-29T10:55:51.203Z,25.50
2018-04-29T10:58:19.570Z,25.70
2018-04-29T11:00:47.130Z,25.70
2018-04-29T11:03:14.680Z,25.80
2018-04-29T11:05:42.283Z,25.80
2018-04-29T11:08:09.893Z,25.90
2018-04-29T11:10:37.519Z,26.10
2018-04-29T11:13:05.136Z,26.10
2018-04-29T11:15:32.741Z,26.20
2018-04-29T11:18:00.347Z,26.30
2018-04-29T11:20:27.981Z,26.20
2018-04-29T11:22:55.600Z,26.30
2018-04-29T11:25:23.947Z,26.60
2018-04-29T11:27:51.571Z,26.60
2018-04-29T11:30:19.197Z,26.60
2018-04-29T11:32:47.562Z,26.60
2018-04-29T11:35:15.913Z,26.50
2018-04-29T11:37:43.540Z,26.50
2018-04-29T11:40:11.099Z,26.50
2018-04-29T11:42:38.736Z,26.60
2018-04-29T11:45:06.374Z,26.70
2018-04-29T11:47:33.993Z,26.90
2018-04-29T11:50:02.507Z,27.00
2018-04-29T11:52:30.135Z,27.00
2018-04-29T11:54:57.713Z,27.10
2018-04-29T11:57:25.337Z,27.20
2018-04-29T11:59:52.956Z,27.50
2018-04-29T12:02:20.625Z,28.10
2018-04-29T12:04:48.253Z,29.60
2018-04-29T12:07:15.839Z,31.20
2018-04-29T12:09:43.395Z,32.80
2018-04-29T12:12:11.027Z,33.30
2018-04-29T12:14:38.614Z,33.70
2018-04-29T12:17:06.248Z,34.10
2018-04-29T12:19:33.890Z,35.10
2018-04-29T12:22:01.453Z,36.00
2018-04-29T12:24:29.083Z,37.00
2018-04-29T12:26:57.475Z,37.90
2018-04-29T12:29:25.850Z,38.20
2018-04-29T12:31:54.194Z,38.20
2018-04-29T12:34:22.535Z,37.60
2018-04-29T12:36:50.146Z,37.60
2018-04-29T12:39:17.693Z,38.20
2018-04-29T12:41:45.345Z,37.50
2018-04-29T12:44:13.096Z,37.70
2018-04-29T12:46:40.823Z,38.30
2018-04-29T12:49:08.423Z,38.30
2018-04-29T12:51:36.035Z,38.40
2018-04-29T12:54:04.409Z,39.50
2018-04-29T12:56:32.793Z,39.90
2018-04-29T12:59:01.153Z,39.80
2018-04-29T13:01:28.767Z,39.80
2018-04-29T13:03:56.307Z,39.70
2018-04-29T13:06:23.907Z,39.20
2018-04-29T13:08:51.534Z,39.10
2018-04-29T13:11:19.164Z,38.90
2018-04-29T13:13:47.591Z,37.30
2018-04-29T13:16:15.178Z,37.30
2018-04-29T13:18:42.764Z,36.20
2018-04-29T13:21:11.209Z,34.80
2018-04-29T13:23:38.852Z,34.80
2018-04-29T13:26:06.735Z,34.40
2018-04-29T13:28:34.358Z,34.40
2018-04-29T13:31:01.983Z,33.90
2018-04-29T13:33:29.812Z,33.90
2018-04-29T13:35:57.413Z,34.10
2018-04-29T13:38:25.795Z,34.00
2018-04-29T13:40:53.772Z,34.00
2018-04-29T13:43:22.108Z,34.20
2018-04-29T13:45:49.808Z,34.20
2018-04-29T13:48:18.171Z,34.70
2018-04-29T13:50:46.192Z,34.60
2018-04-29T13:53:13.952Z,34.80
2018-04-29T13:55:41.572Z,34.60
2018-04-29T13:58:09.202Z,34.70
2018-04-29T14:00:36.876Z,34.90
2018-04-29T14:03:04.457Z,35.00
2018-04-29T14:05:32.065Z,35.40
2018-04-29T14:07:59.671Z,35.70
2018-04-29T14:10:27.335Z,35.80
2018-04-29T14:12:54.897Z,35.30
2018-04-29T14:15:23.612Z,34.60
2018-04-29T14:17:51.235Z,34.60
2018-04-29T14:20:18.846Z,34.10
2018-04-29T14:22:46.433Z,32.80
2018-04-29T14:25:14.036Z,33.20
2018-04-29T14:27:41.820Z,33.50
2018-04-29T14:30:10.328Z,34.50
2018-04-29T14:32:38.668Z,34.40
2018-04-29T14:35:07.045Z,35.00
2018-04-29T14:37:35.422Z,35.40
2018-04-29T14:40:02.966Z,35.40
2018-04-29T14:42:30.558Z,35.60
2018-04-29T14:44:58.257Z,35.70
2018-04-29T14:47:26.320Z,35.80
2018-04-29T14:49:54.064Z,34.60
2018-04-29T14:52:21.658Z,34.10
2018-04-29T14:54:49.272Z,34.20
2018-04-29T14:57:17.662Z,34.90
2018-04-29T14:59:45.278Z,34.80
2018-04-29T15:02:12.908Z,34.80
2018-04-29T15:04:40.508Z,34.50
2018-04-29T15:07:08.123Z,34.80
2018-04-29T15:09:35.682Z,34.90
2018-04-29T15:12:03.281Z,35.00
2018-04-29T15:14:41.683Z,34.00
2018-04-29T15:17:11.740Z,33.60
2018-04-29T15:19:50.015Z,33.90
2018-04-29T15:22:17.600Z,33.90
2018-04-29T15:24:45.986Z,34.40
2018-04-29T15:27:14.372Z,34.50
2018-04-29T15:29:42.715Z,33.40
2018-04-29T15:32:10.319Z,33.40
2018-04-29T15:34:37.923Z,33.10
2018-04-29T15:37:05.548Z,32.80
2018-04-29T15:39:33.137Z,32.40
2018-04-29T15:42:00.764Z,32.30
2018-04-29T15:44:28.597Z,31.80
2018-04-29T15:46:56.201Z,31.80
2018-04-29T15:49:23.757Z,31.70
2018-04-29T15:51:51.410Z,31.60
2018-04-29T15:54:18.982Z,31.50
2018-04-29T15:56:46.575Z,31.40
2018-04-29T15:59:14.175Z,31.20
2018-04-29T16:01:42.569Z,30.60
2018-04-29T16:04:10.209Z,30.60
2018-04-29T16:06:37.793Z,30.40
2018-04-29T16:09:06.273Z,30.20
2018-04-29T16:11:34.618Z,29.90
2018-04-29T16:14:02.197Z,29.90
2018-04-29T16:16:30.513Z,29.40
2018-04-29T16:18:58.067Z,29.40
2018-04-29T16:21:25.679Z,29.00
2018-04-29T16:23:53.282Z,28.50
2018-04-29T16:26:20.873Z,28.40
2018-04-29T16:28:55.032Z,28.20
2018-04-29T16:31:23.388Z,28.10
2018-04-29T16:33:50.982Z,28.10
2018-04-29T16:36:18.576Z,28.10
2018-04-29T16:38:46.165Z,28.20
2018-04-29T16:41:13.775Z,28.20
2018-04-29T16:43:41.400Z,28.10
2018-04-29T16:46:09.777Z,27.70
2018-04-29T16:48:37.360Z,27.60
2018-04-29T16:51:05.783Z,27.50
2018-04-29T16:53:33.365Z,27.50
2018-04-29T16:56:01.003Z,27.30
2018-04-29T16:58:28.587Z,27.10
2018-04-29T17:00:57.806Z,26.90
2018-04-29T17:03:26.199Z,26.70
2018-04-29T17:05:53.801Z,26.70
2018-04-29T17:08:21.378Z,26.80
2018-04-29T17:10:48.994Z,26.70
2018-04-29T17:13:16.604Z,26.60
2018-04-29T17:15:46.183Z,26.50
2018-04-29T17:18:13.792Z,26.40
2018-04-29T17:20:43.103Z,26.20
2018-04-29T17:23:11.471Z,26.20
2018-04-29T17:25:39.833Z,26.10
2018-04-29T17:28:07.481Z,26.10
2018-04-29T17:30:35.069Z,26.10
2018-04-29T17:33:03.439Z,26.00
2018-04-29T17:35:31.079Z,26.00
2018-04-29T17:37:58.927Z,26.00
2018-04-29T17:40:26.562Z,25.90
2018-04-29T17:43:07.431Z,25.90
2018-04-29T17:45:35.068Z,25.80
2018-04-29T17:48:02.585Z,25.80
2018-04-29T17:50:30.675Z,25.70
2018-04-29T17:52:59.091Z,25.60
2018-04-29T17:55:27.492Z,25.50
2018-04-29T17:57:55.109Z,25.50
2018-04-29T18:00:22.703Z,25.40
2018-04-29T18:02:51.192Z,25.30
2018-04-29T18:05:18.925Z,25.20
2018-04-29T18:07:46.509Z,25.10
2018-04-29T18:10:14.124Z,25.00
2018-04-29T18:12:41.774Z,25.00
2018-04-29T18:15:09.402Z,24.90
2018-04-29T18:17:37.055Z,24.80
2018-04-29T18:20:04.776Z,24.70
2018-04-29T18:22:32.380Z,24.70
2018-04-29T18:25:00.178Z,24.60
2018-04-29T18:27:34.986Z,24.50
2018-04-29T18:30:02.908Z,24.40
2018-04-29T18:32:34.888Z,24.30
2018-04-29T18:35:07.742Z,24.10
2018-04-29T18:37:36.714Z,24.10
2018-04-29T18:40:04.331Z,24.10
2018-04-29T18:42:32.841Z,23.90
2018-04-29T18:45:00.446Z,23.90
2018-04-29T18:47:28.185Z,23.80
2018-04-29T18:49:55.794Z,23.70
2018-04-29T18:52:24.425Z,23.60
2018-04-29T18:54:52.043Z,23.50
2018-04-29T18:57:20.694Z,23.40
2018-04-29T18:59:49.511Z,23.40
2018-04-29T19:02:17.238Z,23.30
2018-04-29T19:04:44.948Z,23.30
2018-04-29T19:07:12.481Z,23.20
2018-04-29T19:09:41.566Z,23.10
2018-04-29T19:12:10.187Z,23.10
2018-04-29T19:14:38.565Z,22.90
2018-04-29T19:17:06.920Z,22.90
2018-04-29T19:19:34.536Z,22.80
2018-04-29T19:22:02.140Z,22.80
2018-04-29T19:24:29.976Z,22.80
2018-04-29T19:26:57.636Z,22.80
2018-04-29T19:29:25.300Z,22.80
2018-04-29T19:31:52.987Z,22.70
2018-04-29T19:34:21.414Z,22.60
2018-04-29T19:36:49.026Z,22.60
2018-04-29T19:39:16.584Z,22.60
2018-04-29T19:41:44.170Z,22.50
2018-04-29T19:44:12.554Z,22.50
2018-04-29T19:46:40.928Z,22.40
2018-04-29T19:49:09.250Z,22.40
2018-04-29T19:51:36.925Z,22.30
2018-04-29T19:54:04.840Z,22.30
2018-04-29T19:56:33.213Z,22.20
2018-04-29T19:59:01.650Z,22.10
2018-04-29T20:01:29.280Z,22.10
2018-04-29T20:03:56.912Z,22.10
2018-04-29T20:06:24.540Z,22.00
2018-04-29T20:08:52.147Z,21.90
2018-04-29T20:11:20.415Z,21.80
2018-04-29T20:13:48.033Z,21.80
2018-04-29T20:16:15.627Z,21.80
2018-04-29T20:18:43.229Z,21.80
2018-04-29T20:21:10.811Z,21.70
2018-04-29T20:23:38.391Z,21.60
2018-04-29T20:26:05.984Z,21.60
2018-04-29T20:28:35.272Z,21.50
2018-04-29T20:31:02.902Z,21.50
2018-04-29T20:33:30.508Z,21.50
2018-04-29T20:35:58.860Z,21.50
2018-04-29T20:38:26.475Z,21.40
2018-04-29T20:40:54.089Z,21.50
2018-04-29T20:43:21.665Z,21.40
2018-04-29T20:45:50.031Z,21.40
2018-04-29T20:48:17.661Z,21.40
2018-04-29T20:51:05.377Z,21.30
2018-04-29T20:53:33.011Z,21.20
2018-04-29T20:56:00.600Z,21.20
2018-04-29T20:58:28.193Z,21.20
2018-04-29T21:00:55.799Z,21.10
2018-04-29T21:03:23.391Z,21.10
2018-04-29T21:05:50.974Z,21.10
2018-04-29T21:08:18.587Z,21.00
2018-04-29T21:10:46.217Z,20.90
2018-04-29T21:13:14.654Z,20.70
2018-04-29T21:15:42.265Z,20.70
2018-04-29T21:18:11.081Z,20.50
2018-04-29T21:23:37.215Z,20.40
2018-04-29T21:26:04.821Z,20.30
2018-04-29T21:28:32.379Z,20.20
2018-04-29T21:31:00.015Z,20.10
2018-04-29T21:33:27.591Z,20.00
2018-04-29T21:35:55.239Z,19.90
2018-04-29T21:38:22.895Z,19.80
2018-04-29T21:40:51.279Z,19.60
2018-04-29T21:43:18.901Z,19.60
2018-04-29T21:45:47.285Z,19.50
2018-04-29T21:48:15.659Z,19.40
2018-04-29T21:50:44.512Z,19.30
2018-04-29T21:53:12.116Z,19.30
2018-04-29T21:55:39.738Z,19.30
2018-04-29T21:58:07.352Z,19.20
2018-04-29T22:00:34.931Z,19.10
2018-04-29T22:03:02.544Z,19.10
2018-04-29T22:05:30.893Z,19.00
2018-04-29T22:07:58.509Z,18.90
2018-04-29T22:10:26.116Z,19.00
2018-04-29T22:12:53.719Z,18.90
2018-04-29T22:15:22.040Z,18.70
2018-04-29T22:17:49.601Z,18.70
2018-04-29T22:20:17.177Z,18.60
2018-04-29T22:22:44.738Z,18.60
2018-04-29T22:25:12.337Z,18.50
2018-04-29T22:27:40.715Z,18.40
2018-04-29T22:30:08.322Z,18.30
2018-04-29T22:32:35.894Z,18.40
2018-04-29T22:35:03.516Z,18.40
2018-04-29T22:37:31.142Z,18.40
2018-04-29T22:39:58.751Z,18.40
2018-04-29T22:42:26.362Z,18.40
2018-04-29T22:44:53.944Z,18.40
2018-04-29T22:47:21.536Z,18.40
2018-04-29T22:49:49.151Z,18.40
2018-04-29T22:52:16.748Z,18.50
2018-04-29T22:54:44.298Z,18.50
2018-04-29T22:57:11.956Z,18.50
2018-04-29T22:59:39.597Z,18.50
2018-04-29T23:02:07.980Z,18.40
2018-04-29T23:04:36.368Z,18.50
2018-04-29T23:07:04.707Z,18.50
2018-04-29T23:09:33.103Z,18.50
2018-04-29T23:12:00.723Z,18.50
2018-04-29T23:14:28.305Z,18.50
2018-04-29T23:16:55.905Z,18.50
2018-04-29T23:19:23.520Z,18.50
2018-04-29T23:21:51.126Z,18.60
2018-04-29T23:24:18.745Z,18.60
2018-04-29T23:26:46.330Z,18.50
2018-04-29T23:29:14.721Z,18.50
2018-04-29T23:31:43.098Z,18.40
2018-04-29T23:34:10.698Z,18.40
2018-04-29T23:36:38.317Z,18.40
2018-04-29T23:39:06.703Z,18.40
2018-04-29T23:41:34.318Z,18.30
2018-04-29T23:44:01.961Z,18.30
2018-04-29T23:46:29.565Z,18.30
2018-04-29T23:48:57.172Z,18.20
2018-04-29T23:51:24.722Z,18.20
2018-04-29T23:53:52.292Z,18.10
2018-04-29T23:56:19.926Z,18.00
2018-04-29T23:58:48.320Z,17.90
